Time;durP1;ratioP1;P1;durP2;ratioP2;P2;SDS_P1;SDS_P2;PMS_P1;PMS_P2;Temp;Humidity;BMP_temperature;BMP_pressure;BME280_temperature;BME280_humidity;BME280_pressure;Samples;Min_cycle;Max_cycle;Signal;HPM_P1;HPM_P2
2022/08/28 00:00:55;;;;;;;;;5.75;5.75;;;;;19.86;48.64;100864.13;5029960;28;45425;-76
2022/08/28 00:03:20;;;;;;;;;7.00;5.25;;;;;19.78;49.09;100869.00;5041974;28;45488;-75
2022/08/28 00:05:46;;;;;;;;;6.50;6.50;;;;;19.78;49.25;100871.69;5039190;28;45503;-77
2022/08/28 00:08:13;;;;;;;;;7.00;6.50;;;;;19.72;49.15;100867.47;5027976;28;45637;-76
2022/08/28 00:10:40;;;;;;;;;6.75;5.00;;;;;19.70;49.43;100878.28;5030297;28;45517;-76
2022/08/28 00:13:07;;;;;;;;;5.50;5.50;;;;;19.70;49.46;100872.94;5019884;28;45587;-76
2022/08/28 00:15:36;;;;;;;;;5.00;5.00;;;;;19.68;49.22;100868.63;5027643;28;45334;-76
2022/08/28 00:18:03;;;;;;;;;8.25;8.00;;;;;19.69;49.51;100855.13;5030696;28;45408;-75
2022/08/28 00:20:31;;;;;;;;;5.00;4.00;;;;;19.67;49.53;100873.09;5023219;28;45411;-75
2022/08/28 00:22:59;;;;;;;;;7.50;5.75;;;;;19.65;49.92;100871.47;5027672;28;45419;-76
2022/08/28 00:25:26;;;;;;;;;4.75;4.75;;;;;19.66;49.85;100866.03;5022082;28;46100;-75
2022/08/28 00:27:56;;;;;;;;;3.50;3.50;;;;;19.69;50.02;100857.81;5027377;28;45483;-75
2022/08/28 00:30:31;;;;;;;;;8.50;6.00;;;;;19.68;49.90;100869.47;5017689;28;45568;-75
2022/08/28 00:33:08;;;;;;;;;8.00;7.50;;;;;19.60;49.96;100855.63;5018883;28;45364;-75
2022/08/28 00:35:33;;;;;;;;;4.00;4.00;;;;;19.55;49.52;100856.81;5023990;28;45408;-74
2022/08/28 00:37:59;;;;;;;;;5.00;4.00;;;;;19.59;49.81;100859.25;5025766;28;45325;-74
2022/08/28 00:40:27;;;;;;;;;6.00;5.00;;;;;19.58;49.73;100862.00;5029685;28;45423;-74
2022/08/28 00:42:53;;;;;;;;;2.00;2.00;;;;;19.61;49.79;100862.69;5029835;28;45372;-74
2022/08/28 00:45:19;;;;;;;;;4.50;4.00;;;;;19.60;50.36;100870.81;5021876;28;45522;-75
2022/08/28 00:47:45;;;;;;;;;6.75;4.00;;;;;19.54;50.24;100869.34;5031237;28;45952;-76
2022/08/28 00:50:18;;;;;;;;;2.50;2.50;;;;;19.49;50.58;100871.41;5028804;28;45424;-75
2022/08/28 00:52:46;;;;;;;;;6.50;5.25;;;;;19.43;50.69;100877.09;5031310;28;45463;-76
2022/08/28 00:55:17;;;;;;;;;5.50;4.00;;;;;19.41;50.73;100877.16;5028949;28;46102;-74
2022/08/28 00:57:55;;;;;;;;;7.50;5.50;;;;;19.34;51.22;100871.28;5027456;28;45536;-74
2022/08/28 01:00:33;;;;;;;;;6.75;5.25;;;;;19.27;51.00;100864.50;5032811;28;45594;-75
2022/08/28 01:03:00;;;;;;;;;4.75;4.75;;;;;19.21;51.51;100878.19;5030062;28;45450;-72
2022/08/28 01:05:27;;;;;;;;;2.75;2.50;;;;;19.16;51.73;100877.56;5033539;28;45571;-74
2022/08/28 01:07:56;;;;;;;;;5.00;5.00;;;;;19.12;51.41;100881.34;5006465;28;45587;-74
2022/08/28 01:10:26;;;;;;;;;4.00;4.00;;;;;19.06;51.81;100866.44;5035223;28;45461;-74
2022/08/28 01:12:55;;;;;;;;;6.75;4.00;;;;;19.04;52.08;100864.78;5036259;28;45479;-74
2022/08/28 01:15:25;;;;;;;;;1.75;1.75;;;;;19.06;51.88;100881.66;5028538;28;46252;-74
2022/08/28 01:17:55;;;;;;;;;5.00;4.50;;;;;19.02;52.23;100880.94;5040752;28;45415;-74
2022/08/28 01:20:27;;;;;;;;;2.00;2.00;;;;;18.92;52.42;100875.19;5028580;28;45577;-75
2022/08/28 01:23:05;;;;;;;;;4.25;2.00;;;;;18.94;52.59;100878.66;5027358;28;45468;-75
2022/08/28 01:25:33;;;;;;;;;5.00;3.00;;;;;18.91;52.74;100876.13;5019172;28;45543;-74
2022/08/28 01:28:01;;;;;;;;;4.50;4.50;;;;;18.88;52.86;100873.59;5014597;28;45552;-75
2022/08/28 01:30:27;;;;;;;;;2.25;2.25;;;;;18.88;52.84;100870.06;5034409;28;45666;-75
2022/08/28 01:32:55;;;;;;;;;3.50;2.00;;;;;18.87;53.06;100866.50;5027774;28;45431;-75
2022/08/28 01:35:24;;;;;;;;;4.00;3.25;;;;;18.84;52.97;100866.63;5023192;28;46039;-74
2022/08/28 01:37:51;;;;;;;;;4.75;3.25;;;;;18.75;53.20;100854.59;5035269;28;45254;-74
2022/08/28 01:40:23;;;;;;;;;2.75;2.75;;;;;18.71;53.68;100860.16;5024270;28;45519;-74
2022/08/28 01:42:49;;;;;;;;;4.00;4.00;;;;;18.68;53.88;100857.66;5014878;28;45458;-75
2022/08/28 01:45:16;;;;;;;;;2.50;2.50;;;;;18.68;53.85;100857.66;5027813;28;45474;-76
2022/08/28 01:47:44;;;;;;;;;2.00;2.00;;;;;18.58;53.95;100852.72;5009268;28;45346;-76
2022/08/28 01:50:13;;;;;;;;;2.00;2.00;;;;;18.57;54.11;100852.78;5024294;28;45436;-75
2022/08/28 01:52:38;;;;;;;;;5.00;2.50;;;;;18.53;54.37;100852.09;5037273;28;45555;-74
2022/08/28 01:55:05;;;;;;;;;4.75;4.50;;;;;18.50;54.15;100841.53;5026305;28;45320;-74
2022/08/28 01:57:32;;;;;;;;;2.00;2.00;;;;;18.45;54.76;100843.59;5035639;28;45305;-75
2022/08/28 01:59:58;;;;;;;;;3.50;2.00;;;;;18.44;54.97;100849.88;5034130;28;45638;-74
2022/08/28 02:02:23;;;;;;;;;3.00;2.00;;;;;18.43;54.72;100853.47;5020214;28;45383;-74
2022/08/28 02:04:49;;;;;;;;;3.25;3.25;;;;;18.39;54.96;100851.91;5025493;28;45456;-75
2022/08/28 02:07:15;;;;;;;;;2.00;2.00;;;;;18.42;54.89;100854.44;5036430;28;45631;-75
2022/08/28 02:09:41;;;;;;;;;4.25;2.50;;;;;18.46;54.95;100856.00;5032253;28;45478;-74
2022/08/28 02:12:06;;;;;;;;;2.00;2.00;;;;;18.48;55.18;100856.81;5025782;28;45455;-74
2022/08/28 02:14:32;;;;;;;;;4.00;4.00;;;;;18.37;55.14;100843.97;5021955;28;45450;-75
2022/08/28 02:16:57;;;;;;;;;2.00;2.00;;;;;18.42;55.28;100854.44;5025669;28;45384;-74
2022/08/28 02:19:23;;;;;;;;;4.00;4.00;;;;;18.36;55.59;100849.38;5027926;28;45503;-74
2022/08/28 02:21:49;;;;;;;;;4.00;4.00;;;;;18.36;55.24;100860.09;5027731;28;45438;-75
2022/08/28 02:24:15;;;;;;;;;5.00;5.00;;;;;18.27;55.50;100845.34;5026569;28;46207;-74
2022/08/28 02:26:42;;;;;;;;;5.00;2.00;;;;;18.32;55.64;100853.13;5027507;28;45585;-75
2022/08/28 02:29:07;;;;;;;;;4.00;3.75;;;;;18.27;55.71;100846.19;5013751;28;45582;-74
2022/08/28 02:31:33;;;;;;;;;5.25;4.25;;;;;18.23;56.03;100849.94;5032990;28;45462;-75
2022/08/28 02:33:58;;;;;;;;;8.25;2.75;;;;;18.20;56.09;100849.22;5037622;28;45789;-73
2022/08/28 02:36:24;;;;;;;;;4.00;4.00;;;;;18.18;56.14;100854.66;5034557;28;45438;-74
2022/08/28 02:38:51;;;;;;;;;4.50;4.50;;;;;18.27;56.35;100867.59;5033630;28;45451;-74
2022/08/28 02:41:16;;;;;;;;;3.00;2.00;;;;;18.23;56.17;100860.63;5031287;28;45326;-74
2022/08/28 02:43:42;;;;;;;;;2.00;2.00;;;;;18.21;55.96;100859.00;5019116;28;46133;-75
2022/08/28 02:46:07;;;;;;;;;4.00;4.00;;;;;18.19;56.41;100864.44;5028667;28;45420;-75
2022/08/28 02:48:35;;;;;;;;;2.50;2.50;;;;;18.19;56.58;100864.44;5023617;28;45642;-76
2022/08/28 02:51:03;;;;;;;;;4.00;4.00;;;;;18.16;56.78;100859.22;5020104;28;45551;-75
2022/08/28 02:53:30;;;;;;;;;4.00;4.00;;;;;18.13;56.87;100859.38;5028214;28;45689;-76
2022/08/28 02:55:56;;;;;;;;;5.25;4.50;;;;;18.18;56.89;100854.66;5034178;28;45415;-75
2022/08/28 02:58:22;;;;;;;;;4.00;3.50;;;;;18.17;56.81;100854.72;5016840;28;45480;-75
2022/08/28 03:00:48;;;;;;;;;2.00;2.00;;;;;18.14;56.67;100861.06;5017633;28;45388;-75
2022/08/28 03:03:14;;;;;;;;;5.00;3.50;;;;;18.09;56.85;100847.06;5025843;28;45508;-75
2022/08/28 03:05:40;;;;;;;;;2.00;2.00;;;;;18.08;57.07;100856.03;5005373;28;45403;-75
2022/08/28 03:08:05;;;;;;;;;3.25;3.25;;;;;18.05;57.21;100850.81;5028755;28;45567;-75
2022/08/28 03:10:30;;;;;;;;;5.00;2.00;;;;;17.99;57.22;100845.75;5017766;28;45568;-75
2022/08/28 03:12:56;;;;;;;;;5.75;4.00;;;;;18.01;57.43;100849.25;5015028;28;45564;-74
2022/08/28 03:15:21;;;;;;;;;4.00;4.00;;;;;17.97;57.81;100847.66;5022102;28;45372;-75
2022/08/28 03:17:47;;;;;;;;;3.25;3.25;;;;;17.98;57.52;100844.03;5033921;28;45443;-75
2022/08/28 03:20:14;;;;;;;;;2.50;2.50;;;;;17.97;57.64;100853.00;5039041;28;45569;-75
2022/08/28 03:25:24;;;;;;;;;0.00;0.00;;;;;17.72;57.70;100828.22;5027835;28;45440;-75
2022/08/28 03:27:51;;;;;;;;;4.50;3.50;;;;;17.86;57.95;100846.31;5022664;28;45499;-75
2022/08/28 03:30:17;;;;;;;;;2.50;2.50;;;;;17.80;58.20;100846.59;5029955;28;45511;-74
2022/08/28 03:32:43;;;;;;;;;2.00;0.50;;;;;17.82;58.34;100847.38;5019771;28;45412;-74
2022/08/28 03:35:08;;;;;;;;;5.25;3.50;;;;;17.75;58.25;100837.91;5025486;28;45406;-75
2022/08/28 03:37:34;;;;;;;;;3.00;3.00;;;;;17.79;58.51;100850.19;5032390;28;45475;-75
2022/08/28 03:40:00;;;;;;;;;8.00;5.50;;;;;17.75;58.35;100853.97;5017553;28;45301;-75
2022/08/28 03:42:26;;;;;;;;;4.00;2.00;;;;;17.73;58.66;100845.13;5027568;28;45429;-74
2022/08/28 03:44:53;;;;;;;;;2.00;2.00;;;;;17.65;58.73;100836.59;5025118;28;45565;-74
2022/08/28 03:47:18;;;;;;;;;5.75;5.00;;;;;17.72;58.93;100843.41;5023896;28;45487;-75
2022/08/28 03:49:44;;;;;;;;;2.00;1.75;;;;;17.68;58.96;100839.13;5026782;28;45496;-74
2022/08/28 03:52:09;;;;;;;;;6.25;5.00;;;;;17.69;59.26;100848.91;5024194;28;46042;-75
2022/08/28 03:54:35;;;;;;;;;5.00;5.00;;;;;17.64;59.23;100845.53;5026665;28;45420;-75
2022/08/28 03:57:00;;;;;;;;;5.00;2.50;;;;;17.59;59.50;100843.94;5023580;28;45601;-75
2022/08/28 03:59:25;;;;;;;;;6.50;4.75;;;;;17.55;59.52;100845.03;5022287;28;45391;-75
2022/08/28 04:01:51;;;;;;;;;1.50;1.50;;;;;17.49;59.70;100826.59;5025144;28;46136;-74
2022/08/28 04:04:16;;;;;;;;;4.00;4.00;;;;;17.53;59.69;100838.00;5024107;28;45451;-76
2022/08/28 04:06:41;;;;;;;;;4.50;4.50;;;;;17.49;59.85;100850.66;5027765;28;45324;-75
2022/08/28 04:09:07;;;;;;;;;5.00;4.00;;;;;17.47;59.83;100848.97;5023978;28;45475;-75
2022/08/28 04:11:41;;;;;;;;;5.00;4.00;;;;;17.40;60.18;100856.41;5025694;28;46042;-75
2022/08/28 04:14:06;;;;;;;;;4.00;2.00;;;;;17.38;60.27;100853.81;5008425;28;45644;-75
2022/08/28 04:16:32;;;;;;;;;4.50;4.50;;;;;17.36;60.61;100855.66;5030052;28;45632;-74
2022/08/28 04:18:57;;;;;;;;;3.00;3.00;;;;;17.32;60.57;100850.50;5035982;28;45670;-76
2022/08/28 04:21:24;;;;;;;;;0.00;0.00;;;;;17.29;60.63;100856.84;5014164;28;46106;-75
2022/08/28 04:23:50;;;;;;;;;4.75;2.00;;;;;17.27;60.71;100842.69;5014479;28;45606;-76
2022/08/28 04:26:22;;;;;;;;;5.50;5.50;;;;;17.30;60.56;100857.75;5014562;28;45502;-74
2022/08/28 04:28:48;;;;;;;;;4.25;4.25;;;;;17.20;60.59;100836.78;5001351;28;45432;-74
2022/08/28 04:31:14;;;;;;;;;2.00;2.00;;;;;17.28;60.79;100848.91;5028547;28;45347;-77
2022/08/28 04:33:40;;;;;;;;;5.00;4.25;;;;;17.25;60.93;100851.72;5017408;28;45392;-76
2022/08/28 04:36:10;;;;;;;;;5.50;2.50;;;;;17.21;61.02;100859.84;5004758;28;45471;-77
2022/08/28 04:38:35;;;;;;;;;4.00;4.00;;;;;17.20;61.35;100855.47;5025624;28;45595;-73
2022/08/28 04:41:06;;;;;;;;;5.00;4.00;;;;;17.17;61.35;100854.72;5013840;28;46041;-74
2022/08/28 04:43:32;;;;;;;;;6.50;2.00;;;;;17.18;61.14;100853.78;5026321;28;45438;-74
2022/08/28 04:45:58;;;;;;;;;5.75;4.25;;;;;17.17;61.57;100858.28;5032676;28;45676;-75
2022/08/28 04:48:24;;;;;;;;;3.50;2.00;;;;;17.16;61.52;100855.66;5021816;28;45535;-75
2022/08/28 04:50:49;;;;;;;;;5.75;4.75;;;;;17.13;61.42;100872.69;5023553;28;45378;-73
2022/08/28 04:53:18;;;;;;;;;2.50;2.50;;;;;17.14;61.66;100866.41;5023129;28;45587;-75
2022/08/28 04:55:46;;;;;;;;;4.00;4.00;;;;;17.16;61.65;100866.34;5025614;28;45349;-75
2022/08/28 04:58:13;;;;;;;;;3.25;3.00;;;;;17.13;61.69;100874.50;5024267;28;45352;-74
2022/08/28 05:00:41;;;;;;;;;3.50;2.00;;;;;17.06;61.87;100865.84;5017935;28;45624;-75
2022/08/28 05:03:06;;;;;;;;;2.50;1.50;;;;;17.07;61.93;100880.09;5018007;28;45544;-74
2022/08/28 05:05:33;;;;;;;;;5.00;2.00;;;;;17.10;61.82;100883.50;5029013;28;45509;-74
2022/08/28 05:07:58;;;;;;;;;4.75;4.00;;;;;17.11;62.10;100885.25;5022166;28;45407;-73
2022/08/28 05:10:24;;;;;;;;;2.00;2.00;;;;;17.04;62.62;100873.06;5033516;28;45397;-74
2022/08/28 05:12:49;;;;;;;;;5.25;4.00;;;;;17.09;62.25;100872.88;5033997;28;45340;-74
2022/08/28 05:15:15;;;;;;;;;3.00;2.00;;;;;17.20;62.01;100874.16;5031967;28;45670;-76
2022/08/28 05:17:41;;;;;;;;;2.50;2.50;;;;;17.35;61.63;100877.94;5016231;28;45442;-75
2022/08/28 05:20:06;;;;;;;;;4.75;4.75;;;;;17.59;60.97;100885.84;5002080;28;46220;-75
2022/08/28 05:22:32;;;;;;;;;4.50;4.00;;;;;17.80;60.40;100880.47;5030950;28;45948;-74
2022/08/28 05:24:59;;;;;;;;;4.50;4.00;;;;;18.02;59.51;100883.94;5020268;28;45385;-76
2022/08/28 05:27:25;;;;;;;;;5.25;4.00;;;;;18.28;59.01;100889.84;5031798;28;45435;-76
2022/08/28 05:29:51;;;;;;;;;4.50;4.00;;;;;18.53;58.00;100886.88;5033532;28;45470;-75
2022/08/28 05:32:17;;;;;;;;;1.75;1.00;;;;;18.85;57.51;100889.81;5007019;28;45478;-76
2022/08/28 05:34:42;;;;;;;;;5.25;3.50;;;;;19.26;56.46;100900.25;5022134;28;45439;-75
2022/08/28 05:37:08;;;;;;;;;1.50;1.50;;;;;19.57;55.36;100901.38;5032596;28;45360;-75
2022/08/28 05:39:33;;;;;;;;;4.25;4.25;;;;;19.91;54.30;100906.78;5024026;28;46325;-75
2022/08/28 05:41:59;;;;;;;;;3.00;3.00;;;;;20.21;53.64;100898.88;5027553;28;45343;-75
2022/08/28 05:44:24;;;;;;;;;3.00;3.00;;;;;20.66;52.47;100905.31;5023339;28;45460;-76
2022/08/28 05:46:50;;;;;;;;;4.00;4.00;;;;;20.98;51.59;100894.50;5023683;28;45412;-76
2022/08/28 05:49:17;;;;;;;;;6.50;2.50;;;;;21.32;50.60;100897.91;5015776;28;46374;-76
2022/08/28 05:51:43;;;;;;;;;7.50;5.00;;;;;21.73;50.00;100908.00;5014486;28;45485;-76
2022/08/28 05:54:10;;;;;;;;;2.00;2.00;;;;;22.18;48.84;100897.13;5019353;28;45467;-75
2022/08/28 05:56:38;;;;;;;;;1.00;1.00;;;;;22.59;47.89;100887.38;5032929;28;45568;-76
2022/08/28 05:59:05;;;;;;;;;3.00;3.00;;;;;23.12;46.71;100900.97;5011171;28;47124;-76
2022/08/28 06:01:34;;;;;;;;;5.75;5.25;;;;;23.36;45.35;100893.03;5019320;28;45384;-75
2022/08/28 06:04:07;;;;;;;;;1.75;1.75;;;;;23.56;45.09;100892.53;5017373;28;45456;-75
2022/08/28 06:06:34;;;;;;;;;4.50;3.00;;;;;23.91;44.80;100900.00;5007779;28;45480;-76
2022/08/28 06:09:04;;;;;;;;;3.00;3.00;;;;;24.29;43.95;100885.56;5023512;28;45444;-75
2022/08/28 06:11:30;;;;;;;;;3.00;2.00;;;;;24.60;43.34;100896.00;5021063;28;45768;-76
2022/08/28 06:13:58;;;;;;;;;2.50;2.50;;;;;24.80;42.82;100887.25;5025701;28;45348;-75
2022/08/28 06:16:23;;;;;;;;;2.25;2.25;;;;;25.20;41.52;100891.47;5028608;28;45590;-75
2022/08/28 06:18:50;;;;;;;;;3.00;2.00;;;;;25.60;41.24;100892.94;5015355;28;48402;-75
2022/08/28 06:21:15;;;;;;;;;3.00;2.25;;;;;25.94;40.57;100893.84;5034256;28;45397;-76
2022/08/28 06:23:41;;;;;;;;;3.00;3.00;;;;;26.29;39.52;100894.72;5024165;28;45524;-77
2022/08/28 06:26:06;;;;;;;;;1.00;0.00;;;;;26.53;39.03;100894.56;5024716;28;45439;-75
2022/08/28 06:28:32;;;;;;;;;3.00;3.00;;;;;26.94;38.66;100891.13;5023844;28;45507;-76
2022/08/28 06:31:02;;;;;;;;;3.00;3.00;;;;;27.23;37.87;100895.06;5008851;28;45937;-76
2022/08/28 06:33:27;;;;;;;;;6.00;3.50;;;;;27.26;37.61;100900.25;5017086;28;45334;-76
2022/08/28 06:35:54;;;;;;;;;3.25;3.00;;;;;27.30;37.59;100891.69;5035847;28;45583;-75
2022/08/28 06:38:22;;;;;;;;;1.00;1.00;;;;;27.57;36.73;100903.03;5021234;28;45457;-75
2022/08/28 06:40:50;;;;;;;;;2.00;2.00;;;;;27.80;36.98;100891.03;5015995;28;45529;-76
2022/08/28 06:43:18;;;;;;;;;3.00;3.00;;;;;28.06;35.58;100897.88;5019975;28;45359;-75
2022/08/28 06:45:46;;;;;;;;;3.00;3.00;;;;;28.27;36.11;100895.09;5021366;28;45410;-75
2022/08/28 06:48:18;;;;;;;;;6.00;4.00;;;;;28.62;35.38;100905.53;5015151;28;45496;-75
2022/08/28 06:50:46;;;;;;;;;2.75;2.75;;;;;29.07;35.19;100893.25;5002711;28;45805;-76
2022/08/28 06:53:13;;;;;;;;;3.00;3.00;;;;;29.10;34.03;100903.84;5035273;28;45383;-75
2022/08/28 06:55:39;;;;;;;;;2.50;2.00;;;;;29.05;34.44;100882.53;5019625;28;45458;-75
2022/08/28 06:58:05;;;;;;;;;3.25;3.25;;;;;29.28;33.91;100895.00;5021391;28;45477;-75
2022/08/28 07:00:32;;;;;;;;;3.00;3.00;;;;;29.30;33.92;100893.00;5035056;28;45332;-74
2022/08/28 07:02:58;;;;;;;;;8.75;3.25;;;;;29.41;34.05;100900.97;5024572;28;45346;-75
2022/08/28 07:05:24;;;;;;;;;3.25;3.25;;;;;29.66;33.26;100893.22;5021436;28;45438;-76
2022/08/28 07:07:50;;;;;;;;;5.25;4.00;;;;;29.62;33.39;100897.22;5034888;28;45497;-75
2022/08/28 07:10:15;;;;;;;;;4.00;3.00;;;;;29.53;33.54;100896.22;5026248;28;45420;-74
2022/08/28 07:12:41;;;;;;;;;4.25;3.25;;;;;29.78;33.46;100892.03;5013799;28;45532;-75
2022/08/28 07:15:07;;;;;;;;;1.00;1.00;;;;;30.21;32.66;100887.84;5022094;28;45399;-74
2022/08/28 07:17:32;;;;;;;;;3.00;3.00;;;;;30.13;32.67;100896.78;5038830;28;46302;-76
2022/08/28 07:19:58;;;;;;;;;2.00;2.00;;;;;30.13;32.53;100890.47;5016339;28;45460;-75
2022/08/28 07:22:25;;;;;;;;;3.25;3.25;;;;;30.17;32.73;100900.06;5018947;28;45400;-75
2022/08/28 07:24:51;;;;;;;;;2.75;2.75;;;;;30.44;32.31;100903.81;5022091;28;45559;-75
2022/08/28 07:27:17;;;;;;;;;3.00;3.00;;;;;30.57;32.26;100904.31;5026835;28;45474;-75
2022/08/28 07:29:42;;;;;;;;;4.25;4.00;;;;;30.74;31.60;100904.50;5016638;28;45480;-74
2022/08/28 07:32:08;;;;;;;;;3.75;3.75;;;;;30.60;31.79;100901.28;5024533;28;45695;-74
2022/08/28 07:34:37;;;;;;;;;2.50;2.50;;;;;30.51;31.95;100885.00;5028523;28;45487;-76
2022/08/28 07:37:05;;;;;;;;;4.00;4.00;;;;;30.63;31.50;100898.25;5007555;28;47050;-77
2022/08/28 07:39:32;;;;;;;;;3.25;3.25;;;;;30.85;31.89;100898.81;5021516;28;45498;-75
2022/08/28 07:41:57;;;;;;;;;3.00;3.00;;;;;31.25;31.27;100908.41;5032087;28;45430;-75
2022/08/28 07:47:07;;;;;;;;;3.00;3.00;;;;;31.57;30.66;100911.56;5016609;28;45729;-76
2022/08/28 07:49:33;;;;;;;;;7.00;4.75;;;;;31.67;30.34;100918.66;5029268;28;45564;-75
2022/08/28 07:51:59;;;;;;;;;4.00;2.00;;;;;31.79;30.60;100911.03;5034418;28;45522;-74
2022/08/28 07:54:25;;;;;;;;;5.00;3.75;;;;;31.98;30.18;100909.13;5033617;28;45416;-75
2022/08/28 07:56:51;;;;;;;;;2.50;2.50;;;;;32.06;29.68;100907.25;5016684;28;47486;-75
2022/08/28 07:59:17;;;;;;;;;5.25;3.75;;;;;31.91;30.13;100913.50;5025061;28;45387;-77
2022/08/28 08:01:45;;;;;;;;;3.00;3.00;;;;;31.57;30.46;100909.72;5019789;28;45553;-75
2022/08/28 08:04:12;;;;;;;;;4.00;3.75;;;;;31.69;30.50;100911.16;5026005;28;45427;-75
2022/08/28 08:06:39;;;;;;;;;5.00;3.75;;;;;31.92;30.26;100910.59;5023481;28;46170;-75
2022/08/28 08:09:07;;;;;;;;;4.25;3.25;;;;;31.69;30.43;100905.69;5017593;28;45534;-76
2022/08/28 08:11:33;;;;;;;;;3.00;3.00;;;;;31.91;30.32;100903.41;5016856;28;45527;-78
2022/08/28 08:14:03;;;;;;;;;4.00;4.00;;;;;32.09;30.27;100914.28;5019976;28;45443;-77
2022/08/28 08:16:32;;;;;;;;;5.50;3.75;;;;;32.28;30.01;100915.94;5025890;28;45461;-76
2022/08/28 08:18:58;;;;;;;;;4.75;4.75;;;;;32.67;29.27;100912.66;5024139;28;45556;-76
2022/08/28 08:21:23;;;;;;;;;3.25;3.25;;;;;32.78;28.74;100911.47;5019939;28;45431;-76
2022/08/28 08:23:49;;;;;;;;;4.50;4.00;;;;;32.58;29.49;100908.16;5016879;28;45462;-76
2022/08/28 08:26:17;;;;;;;;;5.50;5.50;;;;;32.70;29.03;100915.06;5032622;28;45448;-76
2022/08/28 08:28:44;;;;;;;;;5.00;4.00;;;;;32.89;28.60;100913.91;5023440;28;45413;-77
2022/08/28 08:31:22;;;;;;;;;4.00;3.25;;;;;33.02;28.67;100915.28;5014609;28;45559;-76
2022/08/28 08:33:50;;;;;;;;;2.25;0.75;;;;;33.11;28.75;100906.91;5026324;28;45353;-76
2022/08/28 08:36:18;;;;;;;;;3.50;3.00;;;;;33.20;28.70;100912.44;5025001;28;45642;-77
2022/08/28 08:38:45;;;;;;;;;4.00;4.00;;;;;33.16;28.65;100914.59;5034546;28;45513;-76
2022/08/28 08:41:21;;;;;;;;;4.25;3.50;;;;;33.52;28.13;100919.75;5003776;28;45544;-77
2022/08/28 08:44:21;;;;;;;;;2.00;2.00;;;;;33.36;27.87;100925.25;5020205;28;45394;-76
2022/08/28 08:47:11;;;;;;;;;6.00;5.00;;;;;33.28;28.05;100923.38;5031344;28;45440;-76
2022/08/28 08:49:41;;;;;;;;;4.00;2.00;;;;;33.24;28.37;100922.00;5012069;28;45517;-76
2022/08/28 08:52:18;;;;;;;;;4.75;3.50;;;;;33.22;28.02;100919.44;5021575;28;45460;-74
2022/08/28 08:55:04;;;;;;;;;5.75;5.75;;;;;33.40;28.69;100916.50;5021213;28;45290;-75
2022/08/28 08:57:31;;;;;;;;;1.50;0.50;;;;;33.77;28.21;100917.00;5019587;28;45506;-76
2022/08/28 08:59:57;;;;;;;;;7.50;7.50;;;;;33.66;27.56;100909.97;5023217;28;45542;-76
2022/08/28 09:02:30;;;;;;;;;5.50;5.50;;;;;33.74;28.04;100915.47;5035384;28;45677;-76
2022/08/28 09:05:10;;;;;;;;;9.00;5.00;;;;;33.75;27.87;100919.91;5021994;28;45420;-77
2022/08/28 09:07:50;;;;;;;;;9.00;5.25;;;;;33.87;27.38;100894.91;5021074;28;47001;-76
2022/08/28 09:10:16;;;;;;;;;9.00;6.00;;;;;33.90;27.04;100900.03;5033081;28;45488;-77
2022/08/28 09:12:51;;;;;;;;;9.50;5.00;;;;;33.78;28.00;100908.63;5020195;28;45486;-75
2022/08/28 09:15:30;;;;;;;;;5.00;5.00;;;;;33.68;27.47;100915.28;5032386;28;45462;-76
2022/08/28 09:18:07;;;;;;;;;5.50;3.00;;;;;33.79;28.02;100904.00;5041801;28;45515;-76
2022/08/28 09:20:32;;;;;;;;;7.25;7.25;;;;;33.54;28.12;100903.16;5039085;28;45489;-76
2022/08/28 09:22:57;;;;;;;;;11.00;8.00;;;;;33.40;27.90;100900.06;5026768;28;45365;-76
2022/08/28 09:26:02;;;;;;;;;6.75;5.50;;;;;33.58;28.11;100908.09;5026304;28;45528;-75
2022/08/28 09:28:29;;;;;;;;;9.00;8.25;;;;;33.81;27.79;100905.53;4950440;28;46333;-77
2022/08/28 09:31:06;;;;;;;;;7.75;7.75;;;;;33.26;28.26;100903.53;4938507;28;45445;-77
2022/08/28 09:33:39;;;;;;;;;7.25;7.00;;;;;33.38;28.54;100902.16;4948932;28;45545;-76
2022/08/28 09:36:26;;;;;;;;;8.50;5.00;;;;;33.72;27.58;100903.81;4947338;28;45507;-74
2022/08/28 09:39:08;;;;;;;;;7.25;5.25;;;;;33.78;28.05;100907.75;4929870;28;46258;-76
2022/08/28 09:45:01;;;;;;;;;8.00;7.50;;;;;33.46;28.40;100902.13;4947631;28;45700;-75
2022/08/28 09:47:33;;;;;;;;;6.50;5.75;;;;;33.49;27.98;100913.78;4955691;28;45359;-77
2022/08/28 09:50:17;;;;;;;;;5.00;5.00;;;;;33.20;28.90;100905.06;4955670;28;46150;-75
2022/08/28 09:52:42;;;;;;;;;7.25;7.25;;;;;33.22;27.98;100893.94;4929571;28;45484;-73
2022/08/28 09:55:12;;;;;;;;;8.00;8.00;;;;;33.12;28.12;100896.81;4943438;28;45502;-74
2022/08/28 09:57:43;;;;;;;;;10.25;10.25;;;;;33.30;28.76;100896.69;4949229;28;45455;-74
2022/08/28 10:00:09;;;;;;;;;10.00;8.25;;;;;33.10;28.56;100886.03;4940140;28;45635;-74
2022/08/28 10:02:45;;;;;;;;;8.00;7.75;;;;;32.88;28.92;100905.88;4988550;28;46157;-74
2022/08/28 10:05:15;;;;;;;;;7.50;6.75;;;;;32.83;28.94;100894.56;5024093;28;45610;-73
2022/08/28 10:07:40;;;;;;;;;5.25;5.25;;;;;32.76;29.44;100899.88;5027412;28;45502;-73
2022/08/28 10:10:39;;;;;;;;;7.50;5.50;;;;;32.71;29.40;100894.06;5011513;28;46219;-75
2022/08/28 10:13:15;;;;;;;;;6.00;5.50;;;;;32.94;29.46;100899.72;5029637;28;46143;-75
2022/08/28 10:16:13;;;;;;;;;8.00;7.25;;;;;33.38;28.74;100888.44;5019939;28;45471;-75
2022/08/28 10:18:47;;;;;;;;;9.00;7.50;;;;;33.32;28.71;100885.56;5031306;28;45505;-74
2022/08/28 10:21:17;;;;;;;;;7.25;7.25;;;;;33.23;28.95;100893.75;5032926;28;45542;-75
2022/08/28 10:24:01;;;;;;;;;8.50;8.50;;;;;33.25;28.34;100890.84;5035447;28;45474;-75
2022/08/28 10:26:53;;;;;;;;;8.25;7.00;;;;;33.51;28.38;100890.69;5035934;28;45411;-74
2022/08/28 10:29:51;;;;;;;;;7.75;6.00;;;;;33.47;28.68;100894.78;4978073;28;45674;-75
2022/08/28 10:33:02;;;;;;;;;7.00;4.75;;;;;33.32;27.73;100880.94;4975540;28;45483;-75
2022/08/28 10:35:52;;;;;;;;;6.25;6.25;;;;;33.47;28.38;100890.16;4974208;28;45522;-77
2022/08/28 10:38:32;;;;;;;;;5.25;5.25;;;;;33.39;27.64;100892.91;4980497;28;45487;-77
2022/08/28 10:41:07;;;;;;;;;8.00;8.00;;;;;33.04;28.19;100884.00;4964666;28;45566;-76
2022/08/28 10:43:43;;;;;;;;;8.00;6.25;;;;;33.20;28.46;100888.63;4982334;28;46216;-76
2022/08/28 10:46:20;;;;;;;;;5.75;4.25;;;;;33.47;28.14;100881.09;4983406;28;45503;-75
2022/08/28 10:48:52;;;;;;;;;12.75;9.50;;;;;33.38;27.91;100890.34;4958858;28;45577;-76
2022/08/28 10:51:32;;;;;;;;;8.75;8.50;;;;;33.19;28.48;100891.50;4973071;28;45601;-76
2022/08/28 10:54:21;;;;;;;;;4.00;4.00;;;;;33.68;27.89;100890.63;4956153;28;47153;-74
2022/08/28 10:56:55;;;;;;;;;9.00;8.25;;;;;33.51;27.76;100876.09;4964408;28;45566;-75
2022/08/28 10:59:21;;;;;;;;;8.00;7.00;;;;;33.72;27.70;100881.91;4971782;28;45545;-75
2022/08/28 11:01:47;;;;;;;;;9.25;7.75;;;;;33.92;28.02;100882.38;4972864;28;45595;-75
2022/08/28 11:04:18;;;;;;;;;5.00;4.00;;;;;34.14;27.42;100890.84;4972491;28;46256;-77
2022/08/28 11:07:03;;;;;;;;;5.00;4.75;;;;;34.18;27.02;100882.09;5001919;28;45383;-76
2022/08/28 11:09:44;;;;;;;;;5.00;5.00;;;;;33.84;27.79;100881.53;5024376;28;45412;-75
2022/08/28 11:12:15;;;;;;;;;3.00;3.00;;;;;33.02;28.89;100876.97;5036947;28;45594;-76
2022/08/28 11:14:44;;;;;;;;;7.00;4.00;;;;;33.23;28.73;100876.50;5020674;28;46153;-75
2022/08/28 11:17:37;;;;;;;;;4.00;4.00;;;;;33.35;27.96;100887.94;5033889;28;45344;-76
2022/08/28 11:20:23;;;;;;;;;7.50;7.50;;;;;33.00;28.65;100879.88;5025736;28;45505;-75
2022/08/28 11:22:54;;;;;;;;;4.75;4.75;;;;;33.38;28.22;100873.91;5015249;28;45506;-75
2022/08/28 11:25:44;;;;;;;;;8.75;7.75;;;;;33.43;27.87;100877.81;5023300;28;45797;-74
2022/08/28 11:28:13;;;;;;;;;8.00;8.00;;;;;32.99;28.28;100880.06;5035084;28;45526;-74
2022/08/28 11:30:39;;;;;;;;;4.00;4.00;;;;;32.67;28.81;100888.03;5017308;28;45392;-75
2022/08/28 11:33:08;;;;;;;;;11.25;10.75;;;;;32.37;29.28;100876.69;5032991;28;45590;-74
2022/08/28 11:35:47;;;;;;;;;6.50;5.00;;;;;32.47;29.45;100868.31;5001857;28;47658;-75
2022/08/28 11:38:39;;;;;;;;;7.50;4.25;;;;;32.73;29.27;100884.63;5037914;28;45514;-77
2022/08/28 11:41:21;;;;;;;;;5.50;4.50;;;;;32.85;29.56;100868.75;5026323;28;45400;-76
2022/08/28 11:44:11;;;;;;;;;5.00;5.00;;;;;32.63;29.25;100869.38;5030601;28;45350;-75